Peoria, Arizona
Current Conditions -  °F | °C
As of 2:51 PM on Wednesday 22 Oct 2014 (Local Time) from KGEU Reporting Station
Few Clouds Few Clouds  
Wind Chill: 88°   Ceiling: Unl
Heat Index: 88°   Visibility: 20mi
Dew Point: 52°   Wind: 0mph
Humidity: 29%   Direction: NA
Pressure: 29.92"   Gusts: NA
Location:  33.58°N, 112.24°W
Report Text: KGEU 222151Z 00000KT 20SM FEW085 FEW250 31/11 A2992
Loading
Personal Weather Stations






























Interactive Weather Map
Tropical Storm Tracking
New forecast layout! Learn more

10-Day Weather Forecast

Advertisements
Track Severe Weather on mobile